Time;durP1;ratioP1;P1;durP2;ratioP2;P2;SDS_P1;SDS_P2;PMS_P1;PMS_P2;Temp;Humidity;BMP_temperature;BMP_pressure;BME280_temperature;BME280_humidity;BME280_pressure;Samples;Min_cycle;Max_cycle;Signal;HPM_P1;HPM_P2
2020/12/08 00:02:03;;;;;;;9.13;4.55;;;;;;;;;;5093355;28;20173;-66
2020/12/08 00:04:28;;;;;;;9.10;4.63;;;;;;;;;;5093174;28;20198;-66
2020/12/08 00:06:53;;;;;;;9.93;4.77;;;;;;;;;;5093196;28;20193;-66
2020/12/08 00:09:19;;;;;;;10.23;4.67;;;;;;;;;;5093314;28;20173;-66
2020/12/08 00:11:46;;;;;;;7.13;4.00;;;;;;;;;;5093365;28;20734;-65
2020/12/08 00:14:11;;;;;;;10.80;4.00;;;;;;;;;;5093429;28;20205;-66
2020/12/08 00:16:41;;;;;;;12.23;4.50;;;;;;;;;;5093219;28;20201;-65
2020/12/08 00:19:10;;;;;;;7.50;4.47;;;;;;;;;;5093092;28;20211;-65
2020/12/08 00:21:37;;;;;;;10.82;4.78;;;;;;;;;;5093335;28;20243;-65
2020/12/08 00:24:03;;;;;;;9.73;4.27;;;;;;;;;;5093447;28;20172;-66
2020/12/08 00:26:28;;;;;;;9.10;4.40;;;;;;;;;;5093097;28;20226;-65
2020/12/08 00:28:53;;;;;;;8.95;4.28;;;;;;;;;;5095084;28;20200;-65
2020/12/08 00:31:24;;;;;;;8.10;4.20;;;;;;;;;;5096898;28;20227;-65
2020/12/08 00:33:49;;;;;;;8.20;4.37;;;;;;;;;;5097347;28;20532;-66
2020/12/08 00:36:14;;;;;;;9.17;4.27;;;;;;;;;;5097000;28;20165;-66
2020/12/08 00:38:40;;;;;;;10.97;4.10;;;;;;;;;;5096734;28;20318;-66
2020/12/08 00:41:05;;;;;;;7.77;3.97;;;;;;;;;;5096771;28;20213;-68
2020/12/08 00:43:30;;;;;;;8.87;3.93;;;;;;;;;;5096732;28;20699;-66
2020/12/08 00:45:55;;;;;;;6.03;4.17;;;;;;;;;;5096933;28;20173;-68
2020/12/08 00:48:21;;;;;;;7.80;4.03;;;;;;;;;;5096644;28;20173;-67
2020/12/08 00:50:46;;;;;;;9.47;4.60;;;;;;;;;;5096412;28;20201;-68
2020/12/08 00:53:11;;;;;;;8.93;4.33;;;;;;;;;;5096462;28;20177;-68
2020/12/08 00:55:37;;;;;;;10.70;4.60;;;;;;;;;;5096620;28;20176;-68
2020/12/08 00:58:02;;;;;;;10.93;4.27;;;;;;;;;;5096445;28;20518;-67
2020/12/08 01:00:27;;;;;;;8.77;4.70;;;;;;;;;;5096337;28;20177;-68
2020/12/08 01:02:53;;;;;;;8.87;4.53;;;;;;;;;;5096259;28;20173;-67
2020/12/08 01:05:18;;;;;;;10.17;4.60;;;;;;;;;;5096351;28;20222;-67
2020/12/08 01:07:43;;;;;;;9.50;4.40;;;;;;;;;;5096480;28;20192;-67
2020/12/08 01:10:09;;;;;;;9.15;4.63;;;;;;;;;;5096405;28;20177;-67
2020/12/08 01:12:34;;;;;;;8.55;4.80;;;;;;;;;;5096081;28;20205;-67
2020/12/08 01:14:59;;;;;;;8.75;4.32;;;;;;;;;;5096301;28;20209;-66
2020/12/08 01:17:24;;;;;;;8.50;4.05;;;;;;;;;;5096062;28;20169;-67
2020/12/08 01:19:50;;;;;;;9.13;4.30;;;;;;;;;;5096117;28;20211;-66
2020/12/08 01:22:16;;;;;;;9.20;4.17;;;;;;;;;;5095917;28;20175;-66
2020/12/08 01:24:41;;;;;;;8.83;4.33;;;;;;;;;;5095898;28;20165;-66
2020/12/08 01:27:07;;;;;;;8.23;4.00;;;;;;;;;;5095932;28;20180;-66
2020/12/08 01:29:32;;;;;;;8.60;4.07;;;;;;;;;;5095806;28;20180;-66
2020/12/08 01:31:57;;;;;;;9.80;4.13;;;;;;;;;;5095562;28;20232;-67
2020/12/08 01:34:23;;;;;;;8.10;3.80;;;;;;;;;;5095826;28;20173;-67
2020/12/08 01:36:51;;;;;;;8.82;4.13;;;;;;;;;;5095762;28;20208;-67
2020/12/08 01:39:16;;;;;;;9.27;3.72;;;;;;;;;;5095930;28;20179;-66
2020/12/08 01:41:41;;;;;;;7.78;3.85;;;;;;;;;;5095052;28;20173;-67
2020/12/08 01:44:06;;;;;;;6.67;3.70;;;;;;;;;;5095405;28;20165;-66
2020/12/08 01:46:33;;;;;;;7.90;3.97;;;;;;;;;;5095607;28;20252;-67
2020/12/08 01:48:59;;;;;;;7.43;3.90;;;;;;;;;;5095822;28;20192;-66
2020/12/08 01:51:24;;;;;;;7.83;3.87;;;;;;;;;;5095873;28;20208;-65
2020/12/08 01:53:52;;;;;;;6.87;3.93;;;;;;;;;;5095406;28;20169;-66
2020/12/08 01:56:19;;;;;;;8.60;3.97;;;;;;;;;;5095202;28;20255;-65
2020/12/08 01:58:45;;;;;;;7.93;3.77;;;;;;;;;;5095613;28;20221;-65
2020/12/08 02:01:11;;;;;;;7.97;3.33;;;;;;;;;;5095370;28;20195;-65
2020/12/08 02:03:38;;;;;;;9.37;4.03;;;;;;;;;;5095094;28;20175;-66
2020/12/08 02:06:03;;;;;;;7.80;3.73;;;;;;;;;;5095099;28;20538;-66
2020/12/08 02:08:30;;;;;;;7.00;3.78;;;;;;;;;;5095148;28;20180;-67
2020/12/08 02:10:56;;;;;;;7.93;3.70;;;;;;;;;;5094980;28;20197;-66
2020/12/08 02:13:22;;;;;;;8.37;4.10;;;;;;;;;;5095243;28;20183;-67
2020/12/08 02:15:47;;;;;;;7.13;3.30;;;;;;;;;;5095129;28;20176;-66
2020/12/08 02:18:13;;;;;;;7.40;3.85;;;;;;;;;;5095126;28;20180;-68
2020/12/08 02:20:38;;;;;;;8.10;4.18;;;;;;;;;;5094794;28;20707;-68
2020/12/08 02:23:03;;;;;;;6.65;3.47;;;;;;;;;;5095281;28;20179;-68
2020/12/08 02:25:29;;;;;;;6.97;3.83;;;;;;;;;;5094747;28;20173;-66
2020/12/08 02:27:54;;;;;;;7.20;3.60;;;;;;;;;;5094626;28;20535;-67
2020/12/08 02:30:19;;;;;;;6.47;3.60;;;;;;;;;;5094529;28;20224;-66
2020/12/08 02:32:44;;;;;;;6.32;3.45;;;;;;;;;;5094666;28;20177;-67
2020/12/08 02:35:10;;;;;;;7.22;3.30;;;;;;;;;;5094555;28;20251;-66
2020/12/08 02:37:35;;;;;;;7.03;3.97;;;;;;;;;;5094831;28;20263;-67
2020/12/08 02:40:03;;;;;;;7.57;3.40;;;;;;;;;;5094550;28;20176;-65
2020/12/08 02:42:28;;;;;;;7.40;3.50;;;;;;;;;;5094446;28;20192;-66
2020/12/08 02:44:53;;;;;;;6.47;3.40;;;;;;;;;;5094489;28;20180;-66
2020/12/08 02:47:19;;;;;;;6.60;3.50;;;;;;;;;;5094658;28;20177;-64
2020/12/08 02:49:44;;;;;;;6.47;3.00;;;;;;;;;;5094595;28;20177;-66
2020/12/08 02:52:09;;;;;;;6.07;3.23;;;;;;;;;;5093370;28;20196;-65
2020/12/08 02:54:35;;;;;;;6.30;3.50;;;;;;;;;;5094438;28;20188;-68
2020/12/08 02:57:02;;;;;;;6.47;3.33;;;;;;;;;;5094061;28;20542;-67
2020/12/08 02:59:27;;;;;;;5.63;3.20;;;;;;;;;;5094376;28;20173;-67
2020/12/08 03:01:55;;;;;;;6.80;3.33;;;;;;;;;;5094004;28;20187;-68
2020/12/08 03:04:21;;;;;;;6.73;3.20;;;;;;;;;;5094208;28;20523;-68
2020/12/08 03:06:47;;;;;;;5.03;3.10;;;;;;;;;;5093847;28;20196;-66
2020/12/08 03:09:12;;;;;;;5.47;3.00;;;;;;;;;;5094154;28;20168;-66
2020/12/08 03:11:37;;;;;;;6.73;3.27;;;;;;;;;;5094007;28;20192;-67
2020/12/08 03:14:02;;;;;;;5.70;3.17;;;;;;;;;;5093804;28;20234;-67
2020/12/08 03:16:28;;;;;;;5.37;3.23;;;;;;;;;;5093880;28;20175;-66
2020/12/08 03:18:53;;;;;;;5.60;3.03;;;;;;;;;;5093812;28;20534;-67
2020/12/08 03:21:18;;;;;;;5.10;3.00;;;;;;;;;;5094019;28;20176;-66
2020/12/08 03:23:44;;;;;;;5.23;3.00;;;;;;;;;;5093939;28;20188;-67
2020/12/08 03:26:09;;;;;;;5.20;3.15;;;;;;;;;;5093769;28;20210;-67
2020/12/08 03:28:34;;;;;;;5.30;3.08;;;;;;;;;;5093659;28;20183;-67
2020/12/08 03:30:59;;;;;;;5.83;3.50;;;;;;;;;;5093410;28;20220;-67
2020/12/08 03:33:25;;;;;;;4.10;2.50;;;;;;;;;;5093654;28;20259;-66
2020/12/08 03:35:51;;;;;;;4.83;2.70;;;;;;;;;;5093503;28;20234;-68
2020/12/08 03:38:16;;;;;;;4.63;2.70;;;;;;;;;;5093542;28;20242;-68
2020/12/08 03:40:43;;;;;;;4.27;2.87;;;;;;;;;;5093676;28;20169;-66
2020/12/08 03:43:09;;;;;;;6.07;3.20;;;;;;;;;;5093561;28;20256;-66
2020/12/08 03:45:34;;;;;;;4.07;2.50;;;;;;;;;;5093813;28;20204;-67
2020/12/08 03:48:00;;;;;;;4.60;3.03;;;;;;;;;;5093357;28;20179;-67
2020/12/08 03:50:26;;;;;;;4.22;2.60;;;;;;;;;;5093486;28;20180;-67
2020/12/08 03:52:51;;;;;;;5.57;2.92;;;;;;;;;;5093796;28;20630;-67
2020/12/08 03:55:16;;;;;;;4.43;2.60;;;;;;;;;;5093604;28;20172;-67
2020/12/08 03:57:41;;;;;;;5.23;2.77;;;;;;;;;;5093542;28;20518;-66
2020/12/08 04:00:08;;;;;;;4.60;2.97;;;;;;;;;;5093454;28;20179;-66
2020/12/08 04:02:34;;;;;;;4.20;2.60;;;;;;;;;;5093549;28;20176;-66
2020/12/08 04:04:59;;;;;;;3.95;2.58;;;;;;;;;;5097226;28;20229;-66
2020/12/08 04:07:24;;;;;;;4.13;2.60;;;;;;;;;;5097699;28;20196;-65
2020/12/08 04:09:50;;;;;;;4.32;2.58;;;;;;;;;;5097540;28;20176;-65
2020/12/08 04:12:15;;;;;;;3.80;2.50;;;;;;;;;;5097199;28;20559;-65
2020/12/08 04:14:40;;;;;;;4.67;2.83;;;;;;;;;;5097354;28;20169;-65
2020/12/08 04:17:06;;;;;;;4.77;2.43;;;;;;;;;;5097196;28;20176;-65
2020/12/08 04:19:31;;;;;;;4.67;2.63;;;;;;;;;;5097243;28;20220;-65
2020/12/08 04:22:00;;;;;;;5.27;2.70;;;;;;;;;;5097099;28;20176;-65
2020/12/08 04:24:26;;;;;;;4.87;2.90;;;;;;;;;;5097511;28;20758;-67
2020/12/08 04:26:52;;;;;;;4.07;2.27;;;;;;;;;;5096994;28;20188;-66
2020/12/08 04:29:17;;;;;;;3.80;2.83;;;;;;;;;;5097040;28;20542;-67
2020/12/08 04:31:42;;;;;;;3.53;2.53;;;;;;;;;;5096763;28;20224;-66
2020/12/08 04:34:07;;;;;;;4.30;2.50;;;;;;;;;;5097289;28;20715;-67
2020/12/08 04:36:33;;;;;;;4.20;2.20;;;;;;;;;;5096890;28;20168;-68
2020/12/08 04:38:58;;;;;;;3.93;2.40;;;;;;;;;;5096833;28;20169;-67
2020/12/08 04:41:25;;;;;;;3.83;2.53;;;;;;;;;;5096908;28;20169;-67
2020/12/08 04:43:52;;;;;;;3.17;2.30;;;;;;;;;;5096762;28;20200;-67
2020/12/08 04:46:19;;;;;;;3.60;2.20;;;;;;;;;;5096958;28;20195;-67
2020/12/08 04:48:45;;;;;;;4.65;2.75;;;;;;;;;;5096915;28;20598;-68
2020/12/08 04:51:11;;;;;;;3.58;2.58;;;;;;;;;;5096417;28;20232;-68
2020/12/08 04:53:36;;;;;;;5.30;2.27;;;;;;;;;;5096705;28;20208;-68
2020/12/08 04:56:01;;;;;;;3.83;2.03;;;;;;;;;;5096422;28;20184;-65
2020/12/08 04:58:28;;;;;;;3.55;2.20;;;;;;;;;;5096692;28;20172;-65
2020/12/08 05:00:53;;;;;;;4.77;2.60;;;;;;;;;;5096579;28;20173;-64
2020/12/08 05:03:23;;;;;;;3.63;2.13;;;;;;;;;;5096366;28;20180;-64
2020/12/08 05:05:48;;;;;;;2.83;2.03;;;;;;;;;;5096225;28;20173;-64
2020/12/08 05:08:14;;;;;;;4.00;2.10;;;;;;;;;;5096398;28;20179;-64
2020/12/08 05:10:40;;;;;;;4.57;2.57;;;;;;;;;;5096143;28;20637;-65
2020/12/08 05:13:25;;;;;;;3.70;2.40;;;;;;;;;;5096382;28;20176;-66
2020/12/08 05:16:19;;;;;;;3.17;2.08;;;;;;;;;;5095256;28;20157;-66
2020/12/08 05:18:44;;;;;;;3.33;2.10;;;;;;;;;;5094649;28;20192;-67
2020/12/08 05:21:11;;;;;;;3.37;2.47;;;;;;;;;;5096098;28;20176;-67
2020/12/08 05:23:44;;;;;;;3.93;2.33;;;;;;;;;;5095941;28;20263;-67
2020/12/08 05:26:10;;;;;;;3.67;2.30;;;;;;;;;;5096303;28;20654;-67
2020/12/08 05:28:37;;;;;;;3.13;1.87;;;;;;;;;;5096188;28;20264;-70
2020/12/08 05:31:03;;;;;;;2.88;1.90;;;;;;;;;;5095707;28;20232;-65
2020/12/08 05:33:28;;;;;;;3.10;2.17;;;;;;;;;;5096103;28;20177;-65
2020/12/08 05:35:57;;;;;;;3.08;2.25;;;;;;;;;;5095831;28;20180;-65
2020/12/08 05:38:27;;;;;;;3.20;2.25;;;;;;;;;;5095911;28;20683;-65
2020/12/08 05:40:54;;;;;;;2.77;2.03;;;;;;;;;;5095837;28;20617;-65
2020/12/08 05:43:20;;;;;;;4.60;2.53;;;;;;;;;;5095611;28;20172;-66
2020/12/08 05:45:49;;;;;;;2.60;1.80;;;;;;;;;;5095812;28;20538;-66
2020/12/08 05:48:21;;;;;;;2.40;1.90;;;;;;;;;;5095676;28;20255;-67
2020/12/08 05:50:46;;;;;;;3.60;2.37;;;;;;;;;;5095510;28;20192;-66
2020/12/08 05:53:16;;;;;;;3.42;2.10;;;;;;;;;;5095392;28;20168;-67
2020/12/08 05:55:41;;;;;;;2.90;2.17;;;;;;;;;;5095702;28;20169;-66
2020/12/08 05:58:12;;;;;;;2.95;2.25;;;;;;;;;;5095402;28;20226;-66
2020/12/08 06:00:40;;;;;;;2.65;1.73;;;;;;;;;;5095605;28;20176;-66
2020/12/08 06:03:16;;;;;;;2.88;1.92;;;;;;;;;;5095272;28;20181;-65
2020/12/08 06:05:43;;;;;;;2.90;1.93;;;;;;;;;;5095366;28;20183;-65
2020/12/08 06:08:15;;;;;;;3.30;2.10;;;;;;;;;;5095033;28;20193;-65
2020/12/08 06:10:57;;;;;;;3.03;2.00;;;;;;;;;;5094993;28;20184;-65
2020/12/08 06:13:32;;;;;;;2.58;1.90;;;;;;;;;;5095073;28;20169;-66
2020/12/08 06:16:00;;;;;;;2.50;2.00;;;;;;;;;;5095064;28;20233;-67
2020/12/08 06:18:39;;;;;;;3.80;2.20;;;;;;;;;;5095021;28;20200;-67
2020/12/08 06:21:17;;;;;;;3.00;1.97;;;;;;;;;;5095156;28;20521;-66
2020/12/08 06:23:47;;;;;;;2.57;1.70;;;;;;;;;;5094999;28;20165;-67
2020/12/08 06:26:12;;;;;;;2.27;1.90;;;;;;;;;;5094762;28;20227;-65
2020/12/08 06:28:37;;;;;;;2.67;2.00;;;;;;;;;;5095117;28;20185;-66
2020/12/08 06:31:04;;;;;;;2.10;1.80;;;;;;;;;;5094337;28;20643;-66
2020/12/08 06:33:30;;;;;;;2.63;1.90;;;;;;;;;;5094696;28;20188;-64
2020/12/08 06:36:00;;;;;;;2.37;1.60;;;;;;;;;;5094785;28;20177;-64
2020/12/08 06:38:26;;;;;;;2.57;2.13;;;;;;;;;;5094915;28;20177;-64
2020/12/08 06:40:53;;;;;;;2.77;2.00;;;;;;;;;;5094456;28;20521;-64
2020/12/08 06:43:18;;;;;;;3.73;2.00;;;;;;;;;;5094217;28;20181;-64
2020/12/08 06:45:44;;;;;;;3.33;1.90;;;;;;;;;;5094232;28;20181;-62
2020/12/08 06:48:20;;;;;;;3.25;1.85;;;;;;;;;;5094276;28;20184;-63
2020/12/08 06:50:47;;;;;;;3.33;2.10;;;;;;;;;;5094387;28;20262;-64
2020/12/08 06:53:13;;;;;;;1.93;1.70;;;;;;;;;;5094145;28;20204;-65
2020/12/08 06:55:47;;;;;;;2.43;1.80;;;;;;;;;;5094115;28;20196;-66
2020/12/08 06:58:13;;;;;;;3.20;2.23;;;;;;;;;;5094191;28;20169;-65
2020/12/08 07:00:41;;;;;;;5.93;2.10;;;;;;;;;;5094318;28;20177;-65
2020/12/08 07:03:07;;;;;;;3.73;2.13;;;;;;;;;;5094436;28;20189;-65
2020/12/08 07:05:33;;;;;;;5.03;2.00;;;;;;;;;;5094243;28;20181;-64
2020/12/08 07:08:00;;;;;;;2.77;2.10;;;;;;;;;;5094366;28;20196;-65
2020/12/08 07:10:25;;;;;;;2.60;1.77;;;;;;;;;;5093959;28;20176;-64
2020/12/08 07:12:54;;;;;;;2.57;1.70;;;;;;;;;;5093799;28;20304;-65
2020/12/08 07:15:25;;;;;;;8.00;2.00;;;;;;;;;;5093492;28;20180;-64
2020/12/08 07:17:58;;;;;;;2.20;1.60;;;;;;;;;;5093693;28;20165;-65
2020/12/08 07:20:27;;;;;;;3.17;2.10;;;;;;;;;;5093715;28;20667;-64
2020/12/08 07:22:53;;;;;;;4.70;2.00;;;;;;;;;;5093951;28;20173;-64
2020/12/08 07:25:20;;;;;;;3.80;2.20;;;;;;;;;;5093756;28;20177;-65
2020/12/08 07:27:47;;;;;;;2.90;2.00;;;;;;;;;;5094074;28;20183;-64
2020/12/08 07:30:14;;;;;;;3.30;1.93;;;;;;;;;;5093470;28;20336;-65
2020/12/08 07:32:40;;;;;;;3.57;1.90;;;;;;;;;;5093530;28;20192;-64
2020/12/08 07:35:06;;;;;;;2.93;1.90;;;;;;;;;;5093928;28;20184;-63
2020/12/08 07:37:37;;;;;;;2.40;1.80;;;;;;;;;;5093314;28;20165;-65
2020/12/08 07:40:09;;;;;;;2.23;1.70;;;;;;;;;;5093392;28;20180;-65
2020/12/08 07:42:36;;;;;;;1.87;1.60;;;;;;;;;;5093600;28;20175;-65
2020/12/08 07:45:06;;;;;;;2.33;1.90;;;;;;;;;;5093798;28;20176;-64
2020/12/08 07:47:31;;;;;;;3.13;1.83;;;;;;;;;;5093886;28;20564;-64
2020/12/08 07:49:56;;;;;;;2.90;1.90;;;;;;;;;;5092268;28;20177;-65
2020/12/08 07:52:22;;;;;;;2.70;1.80;;;;;;;;;;5093805;28;20303;-63
2020/12/08 07:54:47;;;;;;;3.40;2.07;;;;;;;;;;5093458;28;20181;-64
2020/12/08 07:57:12;;;;;;;2.30;1.90;;;;;;;;;;5093522;28;20177;-63
2020/12/08 07:59:38;;;;;;;3.35;1.90;;;;;;;;;;5093702;28;20263;-65
2020/12/08 08:02:03;;;;;;;5.22;1.63;;;;;;;;;;5093766;28;20180;-63
2020/12/08 08:04:29;;;;;;;3.40;2.10;;;;;;;;;;5093451;28;20656;-65
2020/12/08 08:06:55;;;;;;;4.03;2.43;;;;;;;;;;5093286;28;20204;-64
2020/12/08 08:09:20;;;;;;;2.77;1.90;;;;;;;;;;5093378;28;20189;-63
2020/12/08 08:11:45;;;;;;;3.27;2.20;;;;;;;;;;5093088;28;20597;-65
2020/12/08 08:14:11;;;;;;;3.42;2.10;;;;;;;;;;5093228;28;20184;-64
2020/12/08 08:16:36;;;;;;;2.10;1.90;;;;;;;;;;5093559;28;20619;-64
2020/12/08 08:19:02;;;;;;;2.93;2.00;;;;;;;;;;5093275;28;20176;-64
2020/12/08 08:21:28;;;;;;;2.23;1.87;;;;;;;;;;5093377;28;20587;-63
2020/12/08 08:23:53;;;;;;;2.70;1.90;;;;;;;;;;5093400;28;20177;-63
2020/12/08 08:26:19;;;;;;;3.30;2.00;;;;;;;;;;5093665;28;20268;-63
2020/12/08 08:28:44;;;;;;;2.92;2.20;;;;;;;;;;5093396;28;20200;-64
2020/12/08 08:31:09;;;;;;;2.83;2.07;;;;;;;;;;5092801;28;20262;-61
2020/12/08 08:33:35;;;;;;;4.45;3.42;;;;;;;;;;5093307;28;20185;-63
2020/12/08 08:36:00;;;;;;;5.30;3.08;;;;;;;;;;5093103;28;20188;-64
2020/12/08 08:38:28;;;;;;;4.00;3.17;;;;;;;;;;5093227;28;20632;-64
2020/12/08 08:40:55;;;;;;;3.38;3.05;;;;;;;;;;5093367;28;20583;-64
2020/12/08 08:43:21;;;;;;;2.90;2.63;;;;;;;;;;5093504;28;20208;-65
2020/12/08 08:45:46;;;;;;;3.80;2.80;;;;;;;;;;5092998;28;20172;-63
2020/12/08 08:48:11;;;;;;;2.87;2.53;;;;;;;;;;5093059;28;20188;-64
2020/12/08 08:50:36;;;;;;;4.47;2.37;;;;;;;;;;5095934;28;20177;-64
2020/12/08 08:53:02;;;;;;;3.03;2.73;;;;;;;;;;5096573;28;20177;-65
2020/12/08 08:55:27;;;;;;;2.77;2.53;;;;;;;;;;5096626;28;20173;-66
2020/12/08 08:57:53;;;;;;;3.60;2.60;;;;;;;;;;5096439;28;20180;-64
2020/12/08 09:00:18;;;;;;;2.95;2.50;;;;;;;;;;5096513;28;20214;-65
2020/12/08 09:02:44;;;;;;;4.07;2.60;;;;;;;;;;5096509;28;20173;-66
2020/12/08 09:05:09;;;;;;;3.37;2.20;;;;;;;;;;5096659;28;20188;-65
2020/12/08 09:07:35;;;;;;;3.17;2.60;;;;;;;;;;5096648;28;20593;-64
2020/12/08 09:10:00;;;;;;;3.87;2.40;;;;;;;;;;5096328;28;20688;-64
2020/12/08 09:12:26;;;;;;;2.58;2.38;;;;;;;;;;5096042;28;20208;-65
2020/12/08 09:14:57;;;;;;;3.10;2.50;;;;;;;;;;5096338;28;20542;-64
2020/12/08 09:17:23;;;;;;;3.27;2.40;;;;;;;;;;5096331;28;20160;-64
2020/12/08 09:19:48;;;;;;;2.88;2.40;;;;;;;;;;5096420;28;20184;-64
2020/12/08 09:22:13;;;;;;;2.78;2.42;;;;;;;;;;5096415;28;20165;-64
2020/12/08 09:24:39;;;;;;;3.08;2.50;;;;;;;;;;5096321;28;20173;-66
2020/12/08 09:27:06;;;;;;;4.38;3.40;;;;;;;;;;5096124;28;20189;-66
2020/12/08 09:29:32;;;;;;;5.72;2.72;;;;;;;;;;5095799;28;20195;-65
2020/12/08 09:31:57;;;;;;;4.57;2.58;;;;;;;;;;5095735;28;20290;-65
2020/12/08 09:34:24;;;;;;;4.20;3.30;;;;;;;;;;5095691;28;20197;-66
2020/12/08 09:36:51;;;;;;;2.60;2.40;;;;;;;;;;5095670;28;20238;-64
2020/12/08 09:39:16;;;;;;;4.85;2.85;;;;;;;;;;5096097;28;20250;-66
2020/12/08 09:41:42;;;;;;;5.60;2.70;;;;;;;;;;5095939;28;20180;-66
2020/12/08 09:44:10;;;;;;;4.60;2.78;;;;;;;;;;5095770;28;20173;-65
2020/12/08 09:46:36;;;;;;;3.60;2.45;;;;;;;;;;5095761;28;20211;-66
2020/12/08 09:49:02;;;;;;;7.13;2.75;;;;;;;;;;5095509;28;20268;-65
2020/12/08 09:51:27;;;;;;;5.93;2.55;;;;;;;;;;5095370;28;20275;-65
2020/12/08 09:53:52;;;;;;;3.22;2.60;;;;;;;;;;5095338;28;20226;-65
2020/12/08 09:56:18;;;;;;;4.82;2.17;;;;;;;;;;5094211;28;20176;-62
2020/12/08 09:58:43;;;;;;;8.52;2.22;;;;;;;;;;5095378;28;20177;-63
2020/12/08 10:01:08;;;;;;;4.13;2.58;;;;;;;;;;5094828;28;20536;-64
2020/12/08 10:03:36;;;;;;;3.72;2.97;;;;;;;;;;5095136;28;20169;-63
2020/12/08 10:06:02;;;;;;;6.20;2.78;;;;;;;;;;5095096;28;20177;-63
2020/12/08 10:08:28;;;;;;;4.00;3.22;;;;;;;;;;5095370;28;20546;-63
2020/12/08 10:10:53;;;;;;;3.72;3.15;;;;;;;;;;5095162;28;20169;-63
2020/12/08 10:13:18;;;;;;;6.35;3.20;;;;;;;;;;5095095;28;20622;-64
2020/12/08 10:15:44;;;;;;;7.82;3.30;;;;;;;;;;5095168;28;20169;-63
2020/12/08 10:18:09;;;;;;;6.25;3.35;;;;;;;;;;5095023;28;20196;-64
2020/12/08 10:20:36;;;;;;;3.80;3.08;;;;;;;;;;5093650;28;20691;-64
2020/12/08 10:23:02;;;;;;;3.95;3.22;;;;;;;;;;5095097;28;20176;-63
2020/12/08 10:25:28;;;;;;;4.50;3.55;;;;;;;;;;5094955;28;20626;-65
2020/12/08 10:27:53;;;;;;;5.15;3.20;;;;;;;;;;5094753;28;20177;-64
2020/12/08 10:30:19;;;;;;;5.75;2.80;;;;;;;;;;5094388;28;20235;-63
2020/12/08 10:32:44;;;;;;;4.18;3.15;;;;;;;;;;5094946;28;20184;-65
2020/12/08 10:35:10;;;;;;;3.83;3.05;;;;;;;;;;5093306;28;20176;-64
2020/12/08 10:37:35;;;;;;;8.10;3.50;;;;;;;;;;5094588;28;20582;-64
2020/12/08 10:40:00;;;;;;;4.63;3.33;;;;;;;;;;5094460;28;20187;-63
2020/12/08 10:42:26;;;;;;;4.55;3.60;;;;;;;;;;5094770;28;20179;-64
2020/12/08 10:44:51;;;;;;;4.40;3.42;;;;;;;;;;5094361;28;20175;-64
2020/12/08 10:47:16;;;;;;;4.30;3.40;;;;;;;;;;5094415;28;20179;-64
2020/12/08 10:49:42;;;;;;;5.32;3.08;;;;;;;;;;5094306;28;20181;-64
2020/12/08 10:52:07;;;;;;;4.05;3.33;;;;;;;;;;5094483;28;20200;-63
2020/12/08 10:54:32;;;;;;;4.78;3.75;;;;;;;;;;5094157;28;20179;-63
2020/12/08 10:56:58;;;;;;;3.90;3.53;;;;;;;;;;5076103;28;20219;-64
2020/12/08 10:59:23;;;;;;;3.42;2.95;;;;;;;;;;5094198;28;20211;-64
2020/12/08 11:01:48;;;;;;;4.68;4.10;;;;;;;;;;5094154;28;20266;-64
2020/12/08 11:04:14;;;;;;;4.10;3.70;;;;;;;;;;5094588;28;20173;-64
2020/12/08 11:06:39;;;;;;;3.75;3.35;;;;;;;;;;5094132;28;20196;-63
2020/12/08 11:09:04;;;;;;;4.85;4.13;;;;;;;;;;5094144;28;20541;-63
2020/12/08 11:11:32;;;;;;;4.45;3.38;;;;;;;;;;5093896;28;20618;-64
2020/12/08 11:13:58;;;;;;;9.95;4.50;;;;;;;;;;5093142;28;20180;-64
2020/12/08 11:16:25;;;;;;;37.15;10.55;;;;;;;;;;5094044;28;20208;-63
2020/12/08 11:18:51;;;;;;;45.25;12.15;;;;;;;;;;5094163;28;20212;-62
2020/12/08 11:21:31;;;;;;;35.97;13.45;;;;;;;;;;5093830;28;20587;-63
2020/12/08 11:23:56;;;;;;;52.40;15.48;;;;;;;;;;5094199;28;20233;-63
2020/12/08 11:26:28;;;;;;;44.25;14.35;;;;;;;;;;5093881;28;20263;-62
2020/12/08 11:28:53;;;;;;;40.33;13.98;;;;;;;;;;5093793;28;20287;-63
2020/12/08 11:31:19;;;;;;;31.15;13.02;;;;;;;;;;5093798;28;20307;-63
2020/12/08 11:33:45;;;;;;;39.40;13.25;;;;;;;;;;5093565;28;20250;-63
2020/12/08 11:36:14;;;;;;;30.25;11.60;;;;;;;;;;5093851;28;20229;-63
2020/12/08 11:38:40;;;;;;;27.73;10.77;;;;;;;;;;5093738;28;20546;-63
2020/12/08 11:41:06;;;;;;;25.10;10.60;;;;;;;;;;5093558;28;20183;-65
2020/12/08 11:43:32;;;;;;;23.65;10.82;;;;;;;;;;5093636;28;20164;-62
2020/12/08 11:45:58;;;;;;;29.90;10.65;;;;;;;;;;5093515;28;20179;-63
2020/12/08 11:48:25;;;;;;;23.13;9.77;;;;;;;;;;5093823;28;20180;-63
2020/12/08 11:50:51;;;;;;;21.48;8.95;;;;;;;;;;5093527;28;20172;-62
2020/12/08 11:53:16;;;;;;;20.67;9.60;;;;;;;;;;5093824;28;20686;-62
2020/12/08 11:55:42;;;;;;;19.42;9.10;;;;;;;;;;5093435;28;20259;-62
2020/12/08 11:58:07;;;;;;;16.00;7.82;;;;;;;;;;5093417;28;20164;-63
2020/12/08 12:00:33;;;;;;;18.95;8.07;;;;;;;;;;5092019;28;20203;-62
2020/12/08 12:02:59;;;;;;;17.83;7.93;;;;;;;;;;5093601;28;20173;-62
2020/12/08 12:05:24;;;;;;;16.33;7.45;;;;;;;;;;5091973;28;20263;-62
2020/12/08 12:07:49;;;;;;;17.83;7.85;;;;;;;;;;5093514;28;20277;-61
2020/12/08 12:10:15;;;;;;;17.65;7.18;;;;;;;;;;5093558;28;20179;-62
2020/12/08 12:12:40;;;;;;;17.77;7.32;;;;;;;;;;5093251;28;20623;-61
2020/12/08 12:15:05;;;;;;;15.98;6.82;;;;;;;;;;5093143;28;20173;-62
2020/12/08 12:17:31;;;;;;;15.13;6.97;;;;;;;;;;5093230;28;20173;-62
2020/12/08 12:19:56;;;;;;;14.65;6.70;;;;;;;;;;5093340;28;20184;-61
2020/12/08 12:22:23;;;;;;;16.58;5.90;;;;;;;;;;5092127;28;20214;-62
2020/12/08 12:24:48;;;;;;;10.38;5.95;;;;;;;;;;5093956;28;20599;-63
2020/12/08 12:27:14;;;;;;;10.75;5.78;;;;;;;;;;5097413;28;20199;-62
2020/12/08 12:29:39;;;;;;;14.85;6.40;;;;;;;;;;5095951;28;20172;-61
2020/12/08 12:32:04;;;;;;;14.02;6.28;;;;;;;;;;5096831;28;20324;-61
2020/12/08 12:34:30;;;;;;;12.43;6.03;;;;;;;;;;5097037;28;20181;-61
2020/12/08 12:36:57;;;;;;;12.77;6.13;;;;;;;;;;5097003;28;20173;-60
2020/12/08 12:39:22;;;;;;;13.77;6.65;;;;;;;;;;5096883;28;20540;-61
2020/12/08 12:41:48;;;;;;;10.38;5.63;;;;;;;;;;5096906;28;20165;-61
2020/12/08 12:44:13;;;;;;;11.18;5.50;;;;;;;;;;5097251;28;20659;-61
2020/12/08 12:46:39;;;;;;;12.07;6.30;;;;;;;;;;5096763;28;20169;-61
2020/12/08 12:49:04;;;;;;;12.65;5.53;;;;;;;;;;5097148;28;20176;-62
2020/12/08 12:51:32;;;;;;;10.32;5.57;;;;;;;;;;5096612;28;20287;-62
2020/12/08 12:53:59;;;;;;;8.77;4.90;;;;;;;;;;5097027;28;20242;-63
2020/12/08 12:56:25;;;;;;;10.45;5.72;;;;;;;;;;5097039;28;20259;-62
2020/12/08 12:58:51;;;;;;;11.23;5.07;;;;;;;;;;5096606;28;20180;-62
2020/12/08 13:01:18;;;;;;;9.77;5.53;;;;;;;;;;5096780;28;20256;-63
2020/12/08 13:03:44;;;;;;;8.98;5.60;;;;;;;;;;5096455;28;20230;-63
2020/12/08 13:06:10;;;;;;;9.43;4.80;;;;;;;;;;5096359;28;20200;-62
2020/12/08 13:08:37;;;;;;;10.70;5.20;;;;;;;;;;5096431;28;20252;-63
2020/12/08 13:11:05;;;;;;;7.18;4.90;;;;;;;;;;5096089;28;20685;-64
2020/12/08 13:13:30;;;;;;;9.20;5.25;;;;;;;;;;5096284;28;20202;-64
2020/12/08 13:15:55;;;;;;;11.68;5.18;;;;;;;;;;5096459;28;20180;-63
2020/12/08 13:18:21;;;;;;;9.45;5.28;;;;;;;;;;5096405;28;20177;-64
2020/12/08 13:20:46;;;;;;;7.63;4.68;;;;;;;;;;5096040;28;20267;-64
2020/12/08 13:23:12;;;;;;;8.43;4.88;;;;;;;;;;5096321;28;20181;-63
2020/12/08 13:25:37;;;;;;;8.93;5.13;;;;;;;;;;5095993;28;20177;-63
2020/12/08 13:28:02;;;;;;;8.32;4.78;;;;;;;;;;5095916;28;20648;-63
2020/12/08 13:30:29;;;;;;;7.47;4.55;;;;;;;;;;5095619;28;20581;-63
2020/12/08 13:32:54;;;;;;;9.50;5.30;;;;;;;;;;5094612;28;20665;-63
2020/12/08 13:35:20;;;;;;;8.05;4.65;;;;;;;;;;5095482;28;20173;-65
2020/12/08 13:37:46;;;;;;;10.52;4.72;;;;;;;;;;5095078;28;20173;-64
2020/12/08 13:40:11;;;;;;;9.18;5.30;;;;;;;;;;5095843;28;20216;-64
2020/12/08 13:42:37;;;;;;;9.60;4.68;;;;;;;;;;5095835;28;20172;-63
2020/12/08 13:45:03;;;;;;;9.90;4.95;;;;;;;;;;5095800;28;20200;-63
2020/12/08 13:47:28;;;;;;;8.80;4.68;;;;;;;;;;5095856;28;20539;-63
2020/12/08 13:49:54;;;;;;;8.45;4.50;;;;;;;;;;5094683;28;20185;-63
2020/12/08 13:52:19;;;;;;;7.82;4.70;;;;;;;;;;5093997;28;20232;-63
2020/12/08 13:54:44;;;;;;;8.40;4.38;;;;;;;;;;5095450;28;20169;-63
2020/12/08 13:57:10;;;;;;;8.80;4.63;;;;;;;;;;5094125;28;20646;-63
2020/12/08 13:59:35;;;;;;;8.73;4.68;;;;;;;;;;5095379;28;20215;-62
2020/12/08 14:02:01;;;;;;;8.85;4.53;;;;;;;;;;5095274;28;20198;-63
2020/12/08 14:04:26;;;;;;;7.60;4.60;;;;;;;;;;5095524;28;20268;-62
2020/12/08 14:06:52;;;;;;;6.72;4.00;;;;;;;;;;5094984;28;20188;-62
2020/12/08 14:09:17;;;;;;;7.97;4.63;;;;;;;;;;5095011;28;20208;-62
2020/12/08 14:11:43;;;;;;;8.20;4.47;;;;;;;;;;5095183;28;20200;-61
2020/12/08 14:14:08;;;;;;;8.57;4.05;;;;;;;;;;5095371;28;20244;-62
2020/12/08 14:16:34;;;;;;;7.75;4.65;;;;;;;;;;5095134;28;20176;-63
2020/12/08 14:18:59;;;;;;;9.63;5.13;;;;;;;;;;5095119;28;20653;-62
2020/12/08 14:21:31;;;;;;;6.32;4.05;;;;;;;;;;5095214;28;20226;-62
2020/12/08 14:23:57;;;;;;;6.47;3.78;;;;;;;;;;5094954;28;20171;-63
2020/12/08 14:26:22;;;;;;;5.78;4.18;;;;;;;;;;5094888;28;20180;-62
2020/12/08 14:28:48;;;;;;;6.65;4.13;;;;;;;;;;5094884;28;20226;-62
2020/12/08 14:31:13;;;;;;;7.22;4.15;;;;;;;;;;5094807;28;20224;-61
2020/12/08 14:33:38;;;;;;;8.73;5.57;;;;;;;;;;5094667;28;20267;-62
2020/12/08 14:36:04;;;;;;;8.45;4.80;;;;;;;;;;5094970;28;20180;-62